createdAt,value
2018-12-26T00:01:55.459Z,12.17
2018-12-26T00:04:23.673Z,11.37
2018-12-26T00:06:51.852Z,10.63
2018-12-26T00:09:20.059Z,11.33
2018-12-26T00:11:48.239Z,11.87
2018-12-26T00:14:16.499Z,12.37
2018-12-26T00:16:44.663Z,12.43
2018-12-26T00:19:12.831Z,11.73
2018-12-26T00:21:41.049Z,10.37
2018-12-26T00:24:09.230Z,11.17
2018-12-26T00:26:37.432Z,10.73
2018-12-26T00:29:05.608Z,11.67
2018-12-26T00:31:33.821Z,11.33
2018-12-26T00:34:02.003Z,11.63
2018-12-26T00:36:30.212Z,10.93
2018-12-26T00:38:58.388Z,10.40
2018-12-26T00:41:26.609Z,11.23
2018-12-26T00:43:54.780Z,10.70
2018-12-26T00:46:22.974Z,11.53
2018-12-26T00:48:51.158Z,11.07
2018-12-26T00:51:19.369Z,11.30
2018-12-26T00:53:47.545Z,11.57
2018-12-26T00:56:15.749Z,12.03
2018-12-26T00:58:43.930Z,11.40
2018-12-26T01:01:12.132Z,11.77
2018-12-26T01:03:40.308Z,12.00
2018-12-26T01:06:08.525Z,11.93
2018-12-26T01:08:36.696Z,11.27
2018-12-26T01:11:04.903Z,10.83
2018-12-26T01:13:33.079Z,10.73
2018-12-26T01:16:01.289Z,11.90
2018-12-26T01:18:29.532Z,11.73
2018-12-26T01:20:57.792Z,11.47
2018-12-26T01:23:25.962Z,10.47
2018-12-26T01:25:54.138Z,11.23
2018-12-26T01:28:22.349Z,11.03
2018-12-26T01:30:50.523Z,11.60
2018-12-26T01:33:18.736Z,11.07
2018-12-26T01:35:46.909Z,10.93
2018-12-26T01:38:15.116Z,11.70
2018-12-26T01:40:43.283Z,12.03
2018-12-26T01:43:11.503Z,12.43
2018-12-26T01:45:39.672Z,10.63
2018-12-26T01:48:07.886Z,10.47
2018-12-26T01:50:36.073Z,10.30
2018-12-26T01:53:04.271Z,11.00
2018-12-26T01:55:32.445Z,11.07
2018-12-26T01:58:00.656Z,11.70
2018-12-26T02:00:28.833Z,11.83
2018-12-26T02:02:57.031Z,11.23
2018-12-26T02:05:25.211Z,11.37
2018-12-26T02:07:53.418Z,10.47
2018-12-26T02:10:21.587Z,10.90
2018-12-26T02:12:49.796Z,11.30
2018-12-26T02:15:17.971Z,11.53
2018-12-26T02:17:46.183Z,11.67
2018-12-26T02:20:14.360Z,10.83
2018-12-26T02:22:42.568Z,10.87
2018-12-26T02:25:10.749Z,11.07
2018-12-26T02:27:38.956Z,11.73
2018-12-26T02:30:07.572Z,11.03
2018-12-26T02:32:35.784Z,11.30
2018-12-26T02:35:03.967Z,11.93
2018-12-26T02:37:32.176Z,11.77
2018-12-26T02:40:00.353Z,11.13
2018-12-26T02:42:28.567Z,10.23
2018-12-26T02:44:56.740Z,11.43
2018-12-26T02:47:24.949Z,12.03
2018-12-26T02:49:53.135Z,10.63
2018-12-26T02:52:21.347Z,11.83
2018-12-26T02:54:49.555Z,12.13
2018-12-26T02:57:17.732Z,11.57
2018-12-26T02:59:45.945Z,11.60
2018-12-26T03:02:14.198Z,12.17
2018-12-26T03:04:42.409Z,10.63
2018-12-26T03:07:10.579Z,11.83
2018-12-26T03:09:38.795Z,11.17
2018-12-26T03:12:06.977Z,11.23
2018-12-26T03:14:35.200Z,10.40
2018-12-26T03:17:03.372Z,11.67
2018-12-26T03:19:31.581Z,10.97
2018-12-26T03:21:59.810Z,11.13
2018-12-26T03:24:28.017Z,11.13
2018-12-26T03:26:56.720Z,10.73
2018-12-26T03:29:25.085Z,10.57
2018-12-26T03:31:53.258Z,10.03
2018-12-26T03:34:21.468Z,10.80
2018-12-26T03:36:49.642Z,10.87
2018-12-26T03:39:17.852Z,11.17
2018-12-26T03:41:46.028Z,11.37
2018-12-26T03:44:14.206Z,11.20
2018-12-26T03:46:42.407Z,11.07
2018-12-26T03:49:10.591Z,11.00
2018-12-26T03:51:38.800Z,10.33
2018-12-26T03:54:06.977Z,12.00
2018-12-26T03:56:35.193Z,10.47
2018-12-26T03:59:03.428Z,11.77
2018-12-26T04:01:31.639Z,10.60
2018-12-26T04:03:59.811Z,10.17
2018-12-26T04:06:28.021Z,11.33
2018-12-26T04:08:56.201Z,10.77
2018-12-26T04:11:24.411Z,10.80
2018-12-26T04:13:52.581Z,10.67
2018-12-26T04:16:20.795Z,10.60
2018-12-26T04:18:48.973Z,11.53
2018-12-26T04:21:17.186Z,11.03
2018-12-26T04:23:45.369Z,10.67
2018-12-26T04:26:13.577Z,10.47
2018-12-26T04:28:41.748Z,10.93
2018-12-26T04:31:09.964Z,10.20
2018-12-26T04:33:38.144Z,10.33
2018-12-26T04:36:06.361Z,11.87
2018-12-26T04:38:34.541Z,11.27
2018-12-26T04:41:02.751Z,11.00
2018-12-26T04:43:30.944Z,11.50
2018-12-26T04:45:59.155Z,11.13
2018-12-26T04:48:27.332Z,11.87
2018-12-26T04:50:55.507Z,12.37
2018-12-26T04:53:23.723Z,11.57
2018-12-26T04:55:51.908Z,11.60
2018-12-26T04:58:20.117Z,12.23
2018-12-26T05:00:48.292Z,12.50
2018-12-26T05:03:16.590Z,12.00
2018-12-26T05:05:44.761Z,12.53
2018-12-26T05:08:12.972Z,11.03
2018-12-26T05:10:41.148Z,11.07
2018-12-26T05:13:09.365Z,11.47
2018-12-26T05:15:37.542Z,11.60
2018-12-26T05:18:05.754Z,11.90
2018-12-26T05:20:33.927Z,10.37
2018-12-26T05:23:02.149Z,11.43
2018-12-26T05:25:30.320Z,10.17
2018-12-26T05:27:58.537Z,11.00
2018-12-26T05:30:26.708Z,11.87
2018-12-26T05:32:54.919Z,11.40
2018-12-26T05:35:23.105Z,12.20
2018-12-26T05:37:51.311Z,12.37
2018-12-26T05:40:19.676Z,11.30
2018-12-26T05:42:47.982Z,11.80
2018-12-26T05:45:16.160Z,12.17
2018-12-26T05:47:44.372Z,12.00
2018-12-26T05:50:12.550Z,11.53
2018-12-26T05:52:40.769Z,11.67
2018-12-26T05:55:08.958Z,12.13
2018-12-26T05:57:42.688Z,11.03
2018-12-26T06:00:07.347Z,11.37
2018-12-26T06:02:35.524Z,10.37
2018-12-26T06:05:03.743Z,11.20
2018-12-26T06:07:32.187Z,11.30
2018-12-26T06:10:00.396Z,11.43
2018-12-26T06:12:28.577Z,11.23
2018-12-26T06:14:56.791Z,10.83
2018-12-26T06:17:24.968Z,10.77
2018-12-26T06:19:53.180Z,11.87
2018-12-26T06:22:21.354Z,11.47
2018-12-26T06:24:49.563Z,9.93
2018-12-26T06:27:17.739Z,10.20
2018-12-26T06:29:45.952Z,10.73
2018-12-26T06:32:14.128Z,10.50
2018-12-26T06:34:42.345Z,10.90
2018-12-26T06:37:10.515Z,11.30
2018-12-26T06:39:38.728Z,11.37
2018-12-26T06:42:06.908Z,11.00
2018-12-26T06:44:35.121Z,11.47
2018-12-26T06:47:03.476Z,10.40
2018-12-26T06:49:31.657Z,11.37
2018-12-26T06:51:59.828Z,11.70
2018-12-26T06:54:28.004Z,10.43
2018-12-26T06:56:56.217Z,11.67
2018-12-26T06:59:24.388Z,11.70
2018-12-26T07:01:52.600Z,12.13
2018-12-26T07:04:20.772Z,11.30
2018-12-26T07:06:48.984Z,11.53
2018-12-26T07:09:17.164Z,11.70
2018-12-26T07:11:45.405Z,11.93
2018-12-26T07:14:13.761Z,12.63
2018-12-26T07:16:41.973Z,13.90
2018-12-26T07:19:10.223Z,14.17
2018-12-26T07:21:39.254Z,15.50
2018-12-26T07:24:07.499Z,13.97
2018-12-26T07:26:36.317Z,14.00
2018-12-26T07:29:04.687Z,14.87
2018-12-26T07:31:32.896Z,16.63
2018-12-26T07:34:01.377Z,15.67
2018-12-26T07:36:30.936Z,14.00
2018-12-26T07:38:59.115Z,13.63
2018-12-26T07:41:27.380Z,14.73
2018-12-26T07:43:55.555Z,12.00
2018-12-26T07:46:23.768Z,13.27
2018-12-26T07:48:51.950Z,14.23
2018-12-26T07:51:20.161Z,14.13
2018-12-26T07:53:48.337Z,14.77
2018-12-26T07:56:16.552Z,13.33
2018-12-26T07:58:44.734Z,15.73
2018-12-26T08:01:12.907Z,17.77
2018-12-26T08:03:41.121Z,15.43
2018-12-26T08:06:09.294Z,16.83
2018-12-26T08:08:39.414Z,16.00
2018-12-26T08:11:07.588Z,17.17
2018-12-26T08:13:36.531Z,12.87
2018-12-26T08:16:07.350Z,16.90
2018-12-26T08:18:36.590Z,16.80
2018-12-26T08:21:04.876Z,16.67
2018-12-26T08:23:33.094Z,16.97
2018-12-26T08:26:01.274Z,17.90
2018-12-26T08:28:29.481Z,18.37
2018-12-26T08:30:57.651Z,17.47
2018-12-26T08:33:25.867Z,17.23
2018-12-26T08:35:54.043Z,12.23
2018-12-26T08:38:22.252Z,15.67
2018-12-26T08:40:50.429Z,14.83
2018-12-26T08:43:18.641Z,16.40
2018-12-26T08:45:46.816Z,16.67
2018-12-26T08:48:15.028Z,16.27
2018-12-26T08:50:43.200Z,14.90
2018-12-26T08:53:11.412Z,15.10
2018-12-26T08:55:39.579Z,15.17
2018-12-26T08:58:08.128Z,15.37
2018-12-26T09:00:36.296Z,13.50
2018-12-26T09:03:04.469Z,16.70
2018-12-26T09:05:32.680Z,16.63
2018-12-26T09:08:00.856Z,15.50
2018-12-26T09:10:29.100Z,15.90
2018-12-26T09:12:57.269Z,15.13
2018-12-26T09:15:25.472Z,7.53
2018-12-26T09:17:53.652Z,14.13
2018-12-26T09:20:21.868Z,17.87
2018-12-26T09:22:52.354Z,15.93
2018-12-26T09:25:20.663Z,14.13
2018-12-26T09:27:48.843Z,17.00
2018-12-26T09:30:17.057Z,16.87
2018-12-26T09:32:45.228Z,15.63
2018-12-26T09:35:13.440Z,15.20
2018-12-26T09:37:41.614Z,11.03
2018-12-26T09:40:09.833Z,11.63
2018-12-26T09:42:38.003Z,15.37
2018-12-26T09:45:17.692Z,15.87
2018-12-26T09:47:45.868Z,9.73
2018-12-26T09:50:14.079Z,15.00
2018-12-26T09:52:42.251Z,13.70
2018-12-26T09:55:10.465Z,9.77
2018-12-26T09:57:38.735Z,16.93
2018-12-26T10:00:08.212Z,16.17
2018-12-26T10:02:36.389Z,12.33
2018-12-26T10:05:05.273Z,11.97
2018-12-26T10:07:33.449Z,16.77
2018-12-26T10:10:01.623Z,17.00
2018-12-26T10:12:29.840Z,16.63
2018-12-26T10:14:58.011Z,13.87
2018-12-26T10:17:26.228Z,16.43
2018-12-26T10:19:54.396Z,10.00
2018-12-26T10:22:22.614Z,14.40
2018-12-26T10:24:50.796Z,19.20
2018-12-26T10:27:19.008Z,20.13
2018-12-26T10:29:47.183Z,13.67
2018-12-26T10:32:15.393Z,15.27
2018-12-26T10:34:45.727Z,11.47
2018-12-26T10:37:13.946Z,19.13
2018-12-26T10:39:42.117Z,18.37
2018-12-26T10:42:10.328Z,18.33
2018-12-26T10:44:38.504Z,16.23
2018-12-26T10:47:06.716Z,16.83
2018-12-26T10:49:34.893Z,19.27
2018-12-26T10:52:03.104Z,15.83
2018-12-26T10:54:33.329Z,12.90
2018-12-26T10:57:01.604Z,15.60
2018-12-26T10:59:29.781Z,15.43
2018-12-26T11:01:57.992Z,14.33
2018-12-26T11:04:26.171Z,15.17
2018-12-26T11:06:54.385Z,16.60
2018-12-26T11:09:22.560Z,11.47
2018-12-26T11:11:50.778Z,15.20
2018-12-26T11:14:19.957Z,15.83
2018-12-26T11:16:51.830Z,15.57
2018-12-26T11:19:20.084Z,17.50
2018-12-26T11:21:48.257Z,17.17
2018-12-26T11:24:16.469Z,15.67
2018-12-26T11:26:44.648Z,15.40
2018-12-26T11:29:18.586Z,15.97
2018-12-26T11:31:42.677Z,17.30
2018-12-26T11:34:10.884Z,16.70
2018-12-26T11:36:39.061Z,14.97
2018-12-26T11:39:08.315Z,11.47
2018-12-26T11:41:36.493Z,12.83
2018-12-26T11:44:05.385Z,14.87
2018-12-26T11:46:33.880Z,14.10
2018-12-26T11:49:02.097Z,15.37
2018-12-26T11:51:30.275Z,15.30
2018-12-26T11:53:58.495Z,16.17
2018-12-26T11:56:26.672Z,14.80
2018-12-26T11:58:55.951Z,16.77
2018-12-26T12:01:24.138Z,14.33
2018-12-26T12:03:53.642Z,14.57
2018-12-26T12:06:22.052Z,14.13
2018-12-26T12:08:50.264Z,15.50
2018-12-26T12:11:18.437Z,16.93
2018-12-26T12:13:46.651Z,17.00
2018-12-26T12:16:14.827Z,17.93
2018-12-26T12:18:43.042Z,12.30
2018-12-26T12:21:11.210Z,6.73
2018-12-26T12:23:39.424Z,13.37
2018-12-26T12:26:07.601Z,16.00
2018-12-26T12:28:35.777Z,11.00
2018-12-26T12:31:03.987Z,12.67
2018-12-26T12:33:32.164Z,13.17
2018-12-26T12:36:00.376Z,13.37
2018-12-26T12:38:30.039Z,14.70
2018-12-26T12:40:58.350Z,16.30
2018-12-26T12:43:26.979Z,14.73
2018-12-26T12:45:55.452Z,15.03
2018-12-26T12:48:23.625Z,15.07
2018-12-26T12:50:51.839Z,14.50
2018-12-26T12:53:20.016Z,16.10
2018-12-26T12:55:48.226Z,15.20
2018-12-26T12:58:16.397Z,12.17
2018-12-26T13:00:44.608Z,14.63
2018-12-26T13:03:12.788Z,14.10
2018-12-26T13:05:41.005Z,14.13
2018-12-26T13:08:09.179Z,12.90
2018-12-26T13:10:37.398Z,11.50
2018-12-26T13:13:05.579Z,11.50
2018-12-26T13:15:33.860Z,13.00
2018-12-26T13:18:02.037Z,13.00
2018-12-26T13:20:30.320Z,10.87
2018-12-26T13:22:58.496Z,9.93
2018-12-26T13:25:26.720Z,13.97
2018-12-26T13:27:54.892Z,13.73
2018-12-26T13:30:23.093Z,14.17
2018-12-26T13:32:51.269Z,11.47
2018-12-26T13:35:19.477Z,12.53
2018-12-26T13:37:49.048Z,14.63
2018-12-26T13:40:21.027Z,9.73
2018-12-26T13:42:49.292Z,11.87
2018-12-26T13:45:17.464Z,13.67
2018-12-26T13:47:45.681Z,12.97
2018-12-26T13:50:13.855Z,14.27
2018-12-26T13:52:42.065Z,12.90
2018-12-26T13:55:10.236Z,13.97
2018-12-26T13:57:38.447Z,13.20
2018-12-26T14:00:08.297Z,13.23
2018-12-26T14:02:36.502Z,14.13
2018-12-26T14:05:05.257Z,12.70
2018-12-26T14:07:33.585Z,12.40
2018-12-26T14:10:01.737Z,6.77
2018-12-26T14:12:29.944Z,11.97
2018-12-26T14:14:58.115Z,12.37
2018-12-26T14:17:26.333Z,15.47
2018-12-26T14:19:54.585Z,14.37
2018-12-26T14:22:22.793Z,15.47
2018-12-26T14:24:50.967Z,16.70
2018-12-26T14:27:19.179Z,14.30
2018-12-26T14:29:47.357Z,11.00
2018-12-26T14:32:15.572Z,15.43
2018-12-26T14:34:43.748Z,14.87
2018-12-26T14:37:11.957Z,14.90
2018-12-26T14:39:40.127Z,13.37
2018-12-26T14:42:08.341Z,9.40
2018-12-26T14:44:36.516Z,14.73
2018-12-26T14:47:04.693Z,13.17
2018-12-26T14:49:32.901Z,13.70
2018-12-26T14:52:01.080Z,10.83
2018-12-26T14:54:29.294Z,10.27
2018-12-26T14:56:57.476Z,16.13
2018-12-26T14:59:25.692Z,15.13
2018-12-26T15:01:53.873Z,13.50
2018-12-26T15:04:22.084Z,12.93
2018-12-26T15:06:50.257Z,7.77
2018-12-26T15:09:18.463Z,14.33
2018-12-26T15:11:46.639Z,8.70
2018-12-26T15:14:14.852Z,13.20
2018-12-26T15:16:43.032Z,14.97
2018-12-26T15:19:14.731Z,16.03
2018-12-26T15:21:42.900Z,14.90
2018-12-26T15:24:11.117Z,11.93
2018-12-26T15:26:39.295Z,11.57
2018-12-26T15:29:07.512Z,15.40
2018-12-26T15:31:35.690Z,14.33
2018-12-26T15:34:03.906Z,13.03
2018-12-26T15:36:33.290Z,13.87
2018-12-26T15:39:01.564Z,12.00
2018-12-26T15:41:29.736Z,16.93
2018-12-26T15:43:57.952Z,14.70
2018-12-26T15:46:26.133Z,11.97
2018-12-26T15:48:54.317Z,13.37
2018-12-26T15:51:22.520Z,15.43
2018-12-26T15:53:50.695Z,13.97
2018-12-26T15:56:18.917Z,17.47
2018-12-26T15:58:47.091Z,14.13
2018-12-26T16:01:15.309Z,10.13
2018-12-26T16:03:43.489Z,17.83
2018-12-26T16:06:11.698Z,16.60
2018-12-26T16:08:39.881Z,12.90
2018-12-26T16:11:08.092Z,14.93
2018-12-26T16:13:41.657Z,16.73
2018-12-26T16:16:09.867Z,7.43
2018-12-26T16:18:38.044Z,16.13
2018-12-26T16:21:06.248Z,16.47
2018-12-26T16:23:34.422Z,17.33
2018-12-26T16:26:02.635Z,17.03
2018-12-26T16:28:30.815Z,10.27
2018-12-26T16:30:59.028Z,15.10
2018-12-26T16:33:27.206Z,11.93
2018-12-26T16:35:59.203Z,15.73
2018-12-26T16:38:27.376Z,14.37
2018-12-26T16:40:55.989Z,13.37
2018-12-26T16:43:24.160Z,17.10
2018-12-26T16:45:52.335Z,13.60
2018-12-26T16:48:20.545Z,11.87
2018-12-26T16:50:48.724Z,14.23
2018-12-26T16:53:16.944Z,11.27
2018-12-26T16:55:45.148Z,12.60
2018-12-26T16:58:13.325Z,14.17
2018-12-26T17:00:41.504Z,13.90
2018-12-26T17:03:09.727Z,15.47
2018-12-26T17:05:37.904Z,17.03
2018-12-26T17:08:06.121Z,11.93
2018-12-26T17:10:34.292Z,16.87
2018-12-26T17:13:02.572Z,15.37
2018-12-26T17:15:30.748Z,13.07
2018-12-26T17:17:58.965Z,15.77
2018-12-26T17:20:27.140Z,15.10
2018-12-26T17:22:55.356Z,14.53
2018-12-26T17:25:23.532Z,12.63
2018-12-26T17:27:51.745Z,17.13
2018-12-26T17:30:19.933Z,15.27
2018-12-26T17:32:48.143Z,18.03
2018-12-26T17:35:16.334Z,17.40
2018-12-26T17:37:44.549Z,16.13
2018-12-26T17:40:12.724Z,16.87
2018-12-26T17:42:40.952Z,15.90
2018-12-26T17:45:09.133Z,16.20
2018-12-26T17:47:37.398Z,17.30
2018-12-26T17:50:24.021Z,16.33
2018-12-26T17:52:52.237Z,16.97
2018-12-26T17:55:25.135Z,15.57
2018-12-26T17:57:53.466Z,16.40
2018-12-26T18:00:21.707Z,15.20
2018-12-26T18:02:49.892Z,18.00
2018-12-26T18:05:18.092Z,17.70
2018-12-26T18:07:46.269Z,12.77
2018-12-26T18:10:14.479Z,15.93
2018-12-26T18:12:42.659Z,16.10
2018-12-26T18:15:10.874Z,16.93
2018-12-26T18:17:39.047Z,15.77
2018-12-26T18:20:07.269Z,16.80
2018-12-26T18:22:35.446Z,17.00
2018-12-26T18:25:03.724Z,17.67
2018-12-26T18:27:31.900Z,11.83
2018-12-26T18:30:00.255Z,17.07
2018-12-26T18:32:28.395Z,15.53
2018-12-26T18:34:56.679Z,15.37
2018-12-26T18:37:24.847Z,20.10
2018-12-26T18:39:53.068Z,19.60
2018-12-26T18:42:21.240Z,17.77
2018-12-26T18:44:49.448Z,17.67
2018-12-26T18:47:17.626Z,17.23
2018-12-26T18:49:45.843Z,15.50
2018-12-26T18:52:14.015Z,16.80
2018-12-26T18:54:42.233Z,16.97
2018-12-26T18:57:10.493Z,17.80
2018-12-26T18:59:38.702Z,15.20
2018-12-26T19:02:06.886Z,18.63
2018-12-26T19:04:35.098Z,16.40
2018-12-26T19:07:03.271Z,17.10
2018-12-26T19:09:31.490Z,14.73
2018-12-26T19:11:59.669Z,18.87
2018-12-26T19:14:27.919Z,21.07
2018-12-26T19:16:56.099Z,19.03
2018-12-26T19:19:24.283Z,18.87
2018-12-26T19:21:52.488Z,14.40
2018-12-26T19:24:20.664Z,19.13
2018-12-26T19:26:48.880Z,19.27
2018-12-26T19:29:17.056Z,19.03
2018-12-26T19:31:45.267Z,17.40
2018-12-26T19:34:13.448Z,17.73
2018-12-26T19:36:41.659Z,20.73
2018-12-26T19:39:09.845Z,18.00
2018-12-26T19:41:38.057Z,17.63
2018-12-26T19:44:06.223Z,17.13
2018-12-26T19:46:34.441Z,18.23
2018-12-26T19:49:02.621Z,15.87
2018-12-26T19:51:30.831Z,17.27
2018-12-26T19:53:59.007Z,18.33
2018-12-26T19:56:27.220Z,19.63
2018-12-26T19:58:55.398Z,18.63
2018-12-26T20:01:24.159Z,18.20
2018-12-26T20:03:52.388Z,16.97
2018-12-26T20:06:20.606Z,14.50
2018-12-26T20:08:48.893Z,18.23
2018-12-26T20:11:17.105Z,17.80
2018-12-26T20:13:45.277Z,15.70
2018-12-26T20:16:13.492Z,17.00
2018-12-26T20:18:41.686Z,17.17
2018-12-26T20:21:09.964Z,18.27
2018-12-26T20:23:38.140Z,20.33
2018-12-26T20:26:06.320Z,19.10
2018-12-26T20:28:34.532Z,17.80
2018-12-26T20:31:02.714Z,17.67
2018-12-26T20:33:30.928Z,17.77
2018-12-26T20:35:59.209Z,17.33
2018-12-26T20:38:27.416Z,18.03
2018-12-26T20:40:55.595Z,16.13
2018-12-26T20:43:23.805Z,16.57
2018-12-26T20:45:51.985Z,17.33
2018-12-26T20:48:22.106Z,15.73
2018-12-26T20:50:50.106Z,16.63
2018-12-26T20:53:18.317Z,16.60
2018-12-26T20:55:46.493Z,16.77
2018-12-26T20:58:14.701Z,16.57
2018-12-26T21:00:42.876Z,16.87
2018-12-26T21:03:11.087Z,18.10
2018-12-26T21:05:39.269Z,17.57
2018-12-26T21:08:07.481Z,17.10
2018-12-26T21:10:35.651Z,17.47
2018-12-26T21:13:03.867Z,17.13
2018-12-26T21:15:32.043Z,15.67
2018-12-26T21:18:00.220Z,17.00
2018-12-26T21:20:28.436Z,17.50
2018-12-26T21:22:56.606Z,18.13
2018-12-26T21:25:24.814Z,19.37
2018-12-26T21:27:52.995Z,17.60
2018-12-26T21:30:21.205Z,17.23
2018-12-26T21:32:49.381Z,16.83
2018-12-26T21:35:17.697Z,16.83
2018-12-26T21:37:45.971Z,18.03
2018-12-26T21:40:14.259Z,17.50
2018-12-26T21:42:42.656Z,17.23
2018-12-26T21:45:10.868Z,17.53
2018-12-26T21:47:39.044Z,19.03
2018-12-26T21:50:08.733Z,16.50
2018-12-26T21:52:36.908Z,17.13
2018-12-26T21:55:05.125Z,18.40
2018-12-26T21:57:33.297Z,17.47
2018-12-26T22:00:01.614Z,18.07
2018-12-26T22:02:29.789Z,12.50
2018-12-26T22:04:58.004Z,18.20
2018-12-26T22:07:26.181Z,19.43
2018-12-26T22:09:54.392Z,19.00
2018-12-26T22:12:22.570Z,18.30
2018-12-26T22:14:50.781Z,18.00
2018-12-26T22:17:18.969Z,17.27
2018-12-26T22:19:47.515Z,17.27
2018-12-26T22:22:15.687Z,17.47
2018-12-26T22:24:43.869Z,17.77
2018-12-26T22:27:12.137Z,16.50
2018-12-26T22:29:40.316Z,16.47
2018-12-26T22:32:08.533Z,16.63
2018-12-26T22:34:36.712Z,16.67
2018-12-26T22:37:04.925Z,17.50
2018-12-26T22:39:33.096Z,15.97
2018-12-26T22:42:01.307Z,17.87
2018-12-26T22:44:29.483Z,17.33
2018-12-26T22:46:57.696Z,18.17
2018-12-26T22:49:25.868Z,18.57
2018-12-26T22:51:54.078Z,17.57
2018-12-26T22:54:22.250Z,16.90
2018-12-26T22:56:50.470Z,18.07
2018-12-26T22:59:18.644Z,18.50
2018-12-26T23:01:46.861Z,17.13
2018-12-26T23:04:15.064Z,18.10
2018-12-26T23:06:43.249Z,19.00
2018-12-26T23:09:11.431Z,15.80
2018-12-26T23:11:39.646Z,16.17
2018-12-26T23:14:07.820Z,14.77
2018-12-26T23:16:36.032Z,15.80
2018-12-26T23:19:04.209Z,17.60
2018-12-26T23:21:32.427Z,17.40
2018-12-26T23:24:00.604Z,18.10
2018-12-26T23:26:28.781Z,17.43
2018-12-26T23:28:56.988Z,16.43
2018-12-26T23:32:14.818Z,15.90
2018-12-26T23:34:42.997Z,18.17
2018-12-26T23:37:11.203Z,17.13
2018-12-26T23:39:39.384Z,16.30
2018-12-26T23:42:07.624Z,17.00
2018-12-26T23:44:35.802Z,19.03
2018-12-26T23:47:04.023Z,16.50
2018-12-26T23:49:32.202Z,18.40
2018-12-26T23:52:00.378Z,16.60
2018-12-26T23:54:28.589Z,18.37
2018-12-26T23:56:56.762Z,17.63
2018-12-26T23:59:24.982Z,17.87
